sensor_id;sensor_type;location;lat;lon;timestamp;P1;durP1;ratioP1;P2;durP2;ratioP2
14984;SDS011;7588;62.368;25.902;2022-11-11T00:00:33;3.23;;;2.03;;
14984;SDS011;7588;62.368;25.902;2022-11-11T00:03:00;5.23;;;2.20;;
14984;SDS011;7588;62.368;25.902;2022-11-11T00:05:26;7.03;;;2.23;;
14984;SDS011;7588;62.368;25.902;2022-11-11T00:07:52;3.73;;;2.27;;
14984;SDS011;7588;62.368;25.902;2022-11-11T00:10:24;9.63;;;2.60;;
14984;SDS011;7588;62.368;25.902;2022-11-11T00:12:51;4.40;;;2.30;;
14984;SDS011;7588;62.368;25.902;2022-11-11T00:15:17;4.87;;;2.20;;
14984;SDS011;7588;62.368;25.902;2022-11-11T00:17:42;5.13;;;2.10;;
14984;SDS011;7588;62.368;25.902;2022-11-11T00:20:26;4.63;;;2.20;;
14984;SDS011;7588;62.368;25.902;2022-11-11T00:23:29;4.37;;;2.00;;
14984;SDS011;7588;62.368;25.902;2022-11-11T00:26:13;3.13;;;1.90;;
14984;SDS011;7588;62.368;25.902;2022-11-11T00:28:39;7.47;;;2.30;;
14984;SDS011;7588;62.368;25.902;2022-11-11T00:31:07;4.63;;;1.70;;
14984;SDS011;7588;62.368;25.902;2022-11-11T00:33:34;2.50;;;1.40;;
14984;SDS011;7588;62.368;25.902;2022-11-11T00:36:01;4.73;;;1.60;;
14984;SDS011;7588;62.368;25.902;2022-11-11T00:38:27;2.60;;;1.77;;
14984;SDS011;7588;62.368;25.902;2022-11-11T00:41:12;4.37;;;1.80;;
14984;SDS011;7588;62.368;25.902;2022-11-11T00:43:39;3.17;;;1.90;;
14984;SDS011;7588;62.368;25.902;2022-11-11T00:46:05;4.80;;;1.80;;
14984;SDS011;7588;62.368;25.902;2022-11-11T00:48:49;7.30;;;1.90;;
14984;SDS011;7588;62.368;25.902;2022-11-11T00:51:34;4.30;;;2.30;;
14984;SDS011;7588;62.368;25.902;2022-11-11T00:53:59;5.77;;;2.03;;
14984;SDS011;7588;62.368;25.902;2022-11-11T00:56:25;3.13;;;1.70;;
14984;SDS011;7588;62.368;25.902;2022-11-11T00:58:51;3.83;;;2.00;;
14984;SDS011;7588;62.368;25.902;2022-11-11T01:01:17;4.77;;;1.87;;
14984;SDS011;7588;62.368;25.902;2022-11-11T01:03:43;3.27;;;1.90;;
14984;SDS011;7588;62.368;25.902;2022-11-11T01:06:10;3.93;;;1.90;;
14984;SDS011;7588;62.368;25.902;2022-11-11T01:08:37;5.53;;;2.30;;
14984;SDS011;7588;62.368;25.902;2022-11-11T01:11:03;3.30;;;1.97;;
14984;SDS011;7588;62.368;25.902;2022-11-11T01:13:35;6.80;;;2.03;;
14984;SDS011;7588;62.368;25.902;2022-11-11T01:16:05;5.13;;;2.40;;
14984;SDS011;7588;62.368;25.902;2022-11-11T01:18:33;5.37;;;1.50;;
14984;SDS011;7588;62.368;25.902;2022-11-11T01:20:59;4.27;;;1.93;;
14984;SDS011;7588;62.368;25.902;2022-11-11T01:23:30;6.27;;;1.90;;
14984;SDS011;7588;62.368;25.902;2022-11-11T01:26:01;3.60;;;2.17;;
14984;SDS011;7588;62.368;25.902;2022-11-11T01:28:30;4.07;;;1.80;;
14984;SDS011;7588;62.368;25.902;2022-11-11T01:31:03;6.20;;;1.97;;
14984;SDS011;7588;62.368;25.902;2022-11-11T01:33:31;3.27;;;1.50;;
14984;SDS011;7588;62.368;25.902;2022-11-11T01:36:01;7.07;;;1.93;;
14984;SDS011;7588;62.368;25.902;2022-11-11T01:38:31;5.43;;;1.70;;
14984;SDS011;7588;62.368;25.902;2022-11-11T01:40:57;1.87;;;1.37;;
14984;SDS011;7588;62.368;25.902;2022-11-11T01:43:23;2.83;;;1.50;;
14984;SDS011;7588;62.368;25.902;2022-11-11T01:45:56;7.53;;;1.73;;
14984;SDS011;7588;62.368;25.902;2022-11-11T01:54:05;5.40;;;2.20;;
14984;SDS011;7588;62.368;25.902;2022-11-11T01:56:46;4.63;;;2.00;;
14984;SDS011;7588;62.368;25.902;2022-11-11T01:59:15;6.53;;;1.70;;
14984;SDS011;7588;62.368;25.902;2022-11-11T02:01:41;2.17;;;1.73;;
14984;SDS011;7588;62.368;25.902;2022-11-11T02:04:08;3.07;;;1.50;;
14984;SDS011;7588;62.368;25.902;2022-11-11T02:06:55;4.30;;;1.60;;
14984;SDS011;7588;62.368;25.902;2022-11-11T02:09:24;5.70;;;1.70;;
14984;SDS011;7588;62.368;25.902;2022-11-11T02:11:50;3.27;;;1.77;;
14984;SDS011;7588;62.368;25.902;2022-11-11T02:14:41;5.13;;;1.50;;
14984;SDS011;7588;62.368;25.902;2022-11-11T02:17:10;3.33;;;1.63;;
14984;SDS011;7588;62.368;25.902;2022-11-11T02:24:54;3.37;;;1.60;;
14984;SDS011;7588;62.368;25.902;2022-11-11T02:27:22;6.30;;;1.90;;
14984;SDS011;7588;62.368;25.902;2022-11-11T02:29:51;6.87;;;1.60;;
14984;SDS011;7588;62.368;25.902;2022-11-11T02:32:19;7.20;;;2.30;;
14984;SDS011;7588;62.368;25.902;2022-11-11T02:34:45;5.23;;;1.90;;
14984;SDS011;7588;62.368;25.902;2022-11-11T02:37:11;5.00;;;1.80;;
14984;SDS011;7588;62.368;25.902;2022-11-11T02:39:45;5.83;;;1.70;;
14984;SDS011;7588;62.368;25.902;2022-11-11T02:42:12;6.17;;;2.07;;
14984;SDS011;7588;62.368;25.902;2022-11-11T02:44:40;3.10;;;1.80;;
14984;SDS011;7588;62.368;25.902;2022-11-11T02:47:06;6.50;;;1.77;;
14984;SDS011;7588;62.368;25.902;2022-11-11T02:49:32;4.63;;;1.87;;
14984;SDS011;7588;62.368;25.902;2022-11-11T02:51:57;6.30;;;1.77;;
14984;SDS011;7588;62.368;25.902;2022-11-11T02:54:23;9.37;;;2.10;;
14984;SDS011;7588;62.368;25.902;2022-11-11T02:56:49;6.37;;;2.03;;
14984;SDS011;7588;62.368;25.902;2022-11-11T02:59:36;8.43;;;2.27;;
14984;SDS011;7588;62.368;25.902;2022-11-11T03:02:04;3.37;;;1.63;;
14984;SDS011;7588;62.368;25.902;2022-11-11T03:04:30;5.50;;;1.60;;
14984;SDS011;7588;62.368;25.902;2022-11-11T03:06:56;4.43;;;2.07;;
14984;SDS011;7588;62.368;25.902;2022-11-11T03:09:22;4.80;;;1.83;;
14984;SDS011;7588;62.368;25.902;2022-11-11T03:11:48;6.07;;;2.33;;
14984;SDS011;7588;62.368;25.902;2022-11-11T03:14:13;7.47;;;2.43;;
14984;SDS011;7588;62.368;25.902;2022-11-11T03:16:39;4.17;;;1.90;;
14984;SDS011;7588;62.368;25.902;2022-11-11T03:19:23;6.00;;;2.30;;
14984;SDS011;7588;62.368;25.902;2022-11-11T03:21:49;6.60;;;2.13;;
14984;SDS011;7588;62.368;25.902;2022-11-11T03:24:15;7.53;;;2.13;;
14984;SDS011;7588;62.368;25.902;2022-11-11T03:26:40;11.43;;;2.70;;
14984;SDS011;7588;62.368;25.902;2022-11-11T03:29:06;4.73;;;2.13;;
14984;SDS011;7588;62.368;25.902;2022-11-11T03:31:32;5.17;;;2.10;;
14984;SDS011;7588;62.368;25.902;2022-11-11T03:33:57;9.53;;;2.10;;
14984;SDS011;7588;62.368;25.902;2022-11-11T03:36:42;8.47;;;2.40;;
14984;SDS011;7588;62.368;25.902;2022-11-11T03:39:27;5.73;;;2.20;;
14984;SDS011;7588;62.368;25.902;2022-11-11T03:41:54;5.67;;;3.20;;
14984;SDS011;7588;62.368;25.902;2022-11-11T03:44:20;6.10;;;2.00;;
14984;SDS011;7588;62.368;25.902;2022-11-11T03:46:46;8.90;;;1.90;;
14984;SDS011;7588;62.368;25.902;2022-11-11T03:49:12;8.40;;;2.40;;
14984;SDS011;7588;62.368;25.902;2022-11-11T03:51:37;10.80;;;2.67;;
14984;SDS011;7588;62.368;25.902;2022-11-11T03:54:03;8.17;;;2.57;;
14984;SDS011;7588;62.368;25.902;2022-11-11T03:56:29;5.70;;;2.10;;
14984;SDS011;7588;62.368;25.902;2022-11-11T03:58:54;9.57;;;2.77;;
14984;SDS011;7588;62.368;25.902;2022-11-11T04:01:20;7.57;;;2.40;;
14984;SDS011;7588;62.368;25.902;2022-11-11T04:04:04;6.87;;;2.37;;
14984;SDS011;7588;62.368;25.902;2022-11-11T04:06:50;6.27;;;2.50;;
14984;SDS011;7588;62.368;25.902;2022-11-11T04:09:34;10.23;;;2.93;;
14984;SDS011;7588;62.368;25.902;2022-11-11T04:12:19;6.50;;;2.60;;
14984;SDS011;7588;62.368;25.902;2022-11-11T04:14:45;6.63;;;2.73;;
14984;SDS011;7588;62.368;25.902;2022-11-11T04:17:29;10.70;;;2.67;;
14984;SDS011;7588;62.368;25.902;2022-11-11T04:19:55;8.37;;;2.60;;
14984;SDS011;7588;62.368;25.902;2022-11-11T04:22:42;8.17;;;2.40;;
14984;SDS011;7588;62.368;25.902;2022-11-11T04:25:08;8.17;;;2.57;;
14984;SDS011;7588;62.368;25.902;2022-11-11T04:27:55;6.90;;;2.47;;
14984;SDS011;7588;62.368;25.902;2022-11-11T04:30:40;4.27;;;2.70;;
14984;SDS011;7588;62.368;25.902;2022-11-11T04:33:06;10.07;;;2.90;;
14984;SDS011;7588;62.368;25.902;2022-11-11T04:35:32;9.43;;;2.70;;
14984;SDS011;7588;62.368;25.902;2022-11-11T04:37:58;6.20;;;2.50;;
14984;SDS011;7588;62.368;25.902;2022-11-11T04:40:42;9.40;;;2.37;;
14984;SDS011;7588;62.368;25.902;2022-11-11T04:43:26;10.10;;;2.53;;
14984;SDS011;7588;62.368;25.902;2022-11-11T04:45:52;8.50;;;2.70;;
14984;SDS011;7588;62.368;25.902;2022-11-11T04:48:17;10.20;;;2.53;;
14984;SDS011;7588;62.368;25.902;2022-11-11T04:50:44;7.63;;;2.10;;
14984;SDS011;7588;62.368;25.902;2022-11-11T04:53:12;9.97;;;2.60;;
14984;SDS011;7588;62.368;25.902;2022-11-11T04:55:39;7.83;;;2.50;;
14984;SDS011;7588;62.368;25.902;2022-11-11T04:58:26;8.20;;;2.23;;
14984;SDS011;7588;62.368;25.902;2022-11-11T05:00:53;8.37;;;2.50;;
14984;SDS011;7588;62.368;25.902;2022-11-11T05:03:19;5.43;;;2.03;;
14984;SDS011;7588;62.368;25.902;2022-11-11T05:08:37;7.47;;;2.40;;
14984;SDS011;7588;62.368;25.902;2022-11-11T05:11:24;5.87;;;2.50;;
14984;SDS011;7588;62.368;25.902;2022-11-11T05:13:54;4.07;;;2.53;;
14984;SDS011;7588;62.368;25.902;2022-11-11T05:16:54;3.67;;;2.13;;
14984;SDS011;7588;62.368;25.902;2022-11-11T05:19:40;3.83;;;2.00;;
14984;SDS011;7588;62.368;25.902;2022-11-11T05:22:45;4.83;;;2.00;;
14984;SDS011;7588;62.368;25.902;2022-11-11T05:25:10;4.20;;;2.07;;
14984;SDS011;7588;62.368;25.902;2022-11-11T05:27:57;5.10;;;1.90;;
14984;SDS011;7588;62.368;25.902;2022-11-11T05:30:23;4.20;;;2.10;;
14984;SDS011;7588;62.368;25.902;2022-11-11T05:32:50;3.80;;;2.20;;
14984;SDS011;7588;62.368;25.902;2022-11-11T05:35:16;6.90;;;2.23;;
14984;SDS011;7588;62.368;25.902;2022-11-11T05:37:42;3.13;;;1.70;;
14984;SDS011;7588;62.368;25.902;2022-11-11T05:40:09;5.57;;;2.40;;
14984;SDS011;7588;62.368;25.902;2022-11-11T05:42:39;5.63;;;1.93;;
14984;SDS011;7588;62.368;25.902;2022-11-11T05:45:06;5.67;;;2.17;;
14984;SDS011;7588;62.368;25.902;2022-11-11T05:47:33;3.37;;;2.10;;
14984;SDS011;7588;62.368;25.902;2022-11-11T05:49:58;5.17;;;1.77;;
14984;SDS011;7588;62.368;25.902;2022-11-11T05:52:24;6.27;;;1.87;;
14984;SDS011;7588;62.368;25.902;2022-11-11T05:54:50;4.20;;;1.80;;
14984;SDS011;7588;62.368;25.902;2022-11-11T05:57:15;3.80;;;1.70;;
14984;SDS011;7588;62.368;25.902;2022-11-11T05:59:41;4.23;;;2.13;;
14984;SDS011;7588;62.368;25.902;2022-11-11T06:02:08;3.20;;;1.60;;
14984;SDS011;7588;62.368;25.902;2022-11-11T06:04:34;3.60;;;1.77;;
14984;SDS011;7588;62.368;25.902;2022-11-11T06:07:00;3.37;;;1.67;;
14984;SDS011;7588;62.368;25.902;2022-11-11T06:09:26;4.53;;;1.63;;
14984;SDS011;7588;62.368;25.902;2022-11-11T06:11:51;2.43;;;1.60;;
14984;SDS011;7588;62.368;25.902;2022-11-11T06:14:17;6.57;;;1.90;;
14984;SDS011;7588;62.368;25.902;2022-11-11T06:16:43;3.27;;;1.97;;
14984;SDS011;7588;62.368;25.902;2022-11-11T06:19:09;1.43;;;1.33;;
14984;SDS011;7588;62.368;25.902;2022-11-11T06:21:35;5.13;;;1.87;;
14984;SDS011;7588;62.368;25.902;2022-11-11T06:24:20;2.17;;;1.47;;
14984;SDS011;7588;62.368;25.902;2022-11-11T06:26:46;3.97;;;2.07;;
14984;SDS011;7588;62.368;25.902;2022-11-11T06:29:12;2.27;;;1.80;;
14984;SDS011;7588;62.368;25.902;2022-11-11T06:31:38;2.67;;;1.70;;
14984;SDS011;7588;62.368;25.902;2022-11-11T06:34:04;3.47;;;1.80;;
14984;SDS011;7588;62.368;25.902;2022-11-11T06:36:29;2.00;;;1.60;;
14984;SDS011;7588;62.368;25.902;2022-11-11T06:38:55;3.67;;;2.23;;
14984;SDS011;7588;62.368;25.902;2022-11-11T06:41:21;2.37;;;1.83;;
14984;SDS011;7588;62.368;25.902;2022-11-11T06:43:49;2.07;;;1.83;;
14984;SDS011;7588;62.368;25.902;2022-11-11T06:46:24;3.70;;;1.60;;
14984;SDS011;7588;62.368;25.902;2022-11-11T06:48:50;2.60;;;1.47;;
14984;SDS011;7588;62.368;25.902;2022-11-11T06:51:16;2.57;;;1.87;;
14984;SDS011;7588;62.368;25.902;2022-11-11T06:53:42;3.90;;;1.90;;
14984;SDS011;7588;62.368;25.902;2022-11-11T06:56:08;2.67;;;2.30;;
14984;SDS011;7588;62.368;25.902;2022-11-11T06:58:36;3.47;;;2.30;;
14984;SDS011;7588;62.368;25.902;2022-11-11T07:01:03;2.23;;;1.73;;
14984;SDS011;7588;62.368;25.902;2022-11-11T07:03:33;3.27;;;2.00;;
14984;SDS011;7588;62.368;25.902;2022-11-11T07:06:03;4.43;;;2.20;;
14984;SDS011;7588;62.368;25.902;2022-11-11T07:08:29;2.77;;;1.80;;
14984;SDS011;7588;62.368;25.902;2022-11-11T07:10:55;3.90;;;2.20;;
14984;SDS011;7588;62.368;25.902;2022-11-11T07:13:21;1.73;;;1.53;;
14984;SDS011;7588;62.368;25.902;2022-11-11T07:15:47;1.70;;;1.60;;
14984;SDS011;7588;62.368;25.902;2022-11-11T07:18:13;2.30;;;2.10;;
14984;SDS011;7588;62.368;25.902;2022-11-11T07:20:39;3.70;;;1.80;;
14984;SDS011;7588;62.368;25.902;2022-11-11T07:23:05;4.17;;;1.70;;
14984;SDS011;7588;62.368;25.902;2022-11-11T07:25:32;2.90;;;1.80;;
14984;SDS011;7588;62.368;25.902;2022-11-11T07:27:58;2.30;;;1.57;;
14984;SDS011;7588;62.368;25.902;2022-11-11T07:30:24;1.90;;;1.40;;
14984;SDS011;7588;62.368;25.902;2022-11-11T07:32:51;3.13;;;1.90;;
14984;SDS011;7588;62.368;25.902;2022-11-11T07:35:18;1.90;;;1.40;;
14984;SDS011;7588;62.368;25.902;2022-11-11T07:37:44;2.37;;;1.83;;
14984;SDS011;7588;62.368;25.902;2022-11-11T07:40:11;1.53;;;1.43;;
14984;SDS011;7588;62.368;25.902;2022-11-11T07:42:39;4.80;;;2.13;;
14984;SDS011;7588;62.368;25.902;2022-11-11T07:45:06;1.83;;;1.70;;
14984;SDS011;7588;62.368;25.902;2022-11-11T07:47:33;4.33;;;1.87;;
14984;SDS011;7588;62.368;25.902;2022-11-11T07:49:59;3.17;;;2.33;;
14984;SDS011;7588;62.368;25.902;2022-11-11T07:52:26;3.50;;;2.10;;
14984;SDS011;7588;62.368;25.902;2022-11-11T07:54:51;1.70;;;1.60;;
14984;SDS011;7588;62.368;25.902;2022-11-11T07:57:17;1.90;;;1.80;;
14984;SDS011;7588;62.368;25.902;2022-11-11T07:59:43;1.83;;;1.50;;
14984;SDS011;7588;62.368;25.902;2022-11-11T08:02:12;1.70;;;1.60;;
14984;SDS011;7588;62.368;25.902;2022-11-11T08:04:39;1.67;;;1.30;;
14984;SDS011;7588;62.368;25.902;2022-11-11T08:07:05;1.87;;;1.57;;
14984;SDS011;7588;62.368;25.902;2022-11-11T08:09:31;1.43;;;1.33;;
14984;SDS011;7588;62.368;25.902;2022-11-11T08:11:57;1.63;;;1.50;;
14984;SDS011;7588;62.368;25.902;2022-11-11T08:14:41;1.77;;;1.40;;
14984;SDS011;7588;62.368;25.902;2022-11-11T08:17:06;1.77;;;1.67;;
14984;SDS011;7588;62.368;25.902;2022-11-11T08:19:32;3.67;;;1.50;;
14984;SDS011;7588;62.368;25.902;2022-11-11T08:21:58;1.40;;;1.30;;
14984;SDS011;7588;62.368;25.902;2022-11-11T08:24:24;1.63;;;1.53;;
14984;SDS011;7588;62.368;25.902;2022-11-11T08:26:49;1.30;;;1.20;;
14984;SDS011;7588;62.368;25.902;2022-11-11T08:29:17;1.30;;;1.20;;
14984;SDS011;7588;62.368;25.902;2022-11-11T08:31:47;2.63;;;1.10;;
14984;SDS011;7588;62.368;25.902;2022-11-11T08:34:12;1.90;;;1.20;;
14984;SDS011;7588;62.368;25.902;2022-11-11T08:36:38;1.03;;;1.00;;
14984;SDS011;7588;62.368;25.902;2022-11-11T08:39:04;3.33;;;1.30;;
14984;SDS011;7588;62.368;25.902;2022-11-11T08:41:30;0.90;;;0.90;;
14984;SDS011;7588;62.368;25.902;2022-11-11T08:43:56;1.27;;;1.10;;
14984;SDS011;7588;62.368;25.902;2022-11-11T08:46:23;1.77;;;1.20;;
14984;SDS011;7588;62.368;25.902;2022-11-11T08:48:49;1.87;;;1.07;;
14984;SDS011;7588;62.368;25.902;2022-11-11T08:51:15;1.73;;;1.10;;
14984;SDS011;7588;62.368;25.902;2022-11-11T08:53:41;1.30;;;1.20;;
14984;SDS011;7588;62.368;25.902;2022-11-11T08:56:07;1.73;;;1.00;;
14984;SDS011;7588;62.368;25.902;2022-11-11T08:58:34;1.37;;;1.03;;
14984;SDS011;7588;62.368;25.902;2022-11-11T09:00:59;1.30;;;1.20;;
14984;SDS011;7588;62.368;25.902;2022-11-11T09:03:28;1.17;;;1.07;;
14984;SDS011;7588;62.368;25.902;2022-11-11T09:05:54;1.73;;;1.13;;
14984;SDS011;7588;62.368;25.902;2022-11-11T09:08:20;2.03;;;1.30;;
14984;SDS011;7588;62.368;25.902;2022-11-11T09:10:46;0.90;;;0.90;;
14984;SDS011;7588;62.368;25.902;2022-11-11T09:13:11;0.90;;;0.90;;
14984;SDS011;7588;62.368;25.902;2022-11-11T09:15:37;1.17;;;1.07;;
14984;SDS011;7588;62.368;25.902;2022-11-11T09:18:03;1.30;;;1.03;;
14984;SDS011;7588;62.368;25.902;2022-11-11T09:20:28;1.90;;;1.30;;
14984;SDS011;7588;62.368;25.902;2022-11-11T09:22:54;0.80;;;0.80;;
14984;SDS011;7588;62.368;25.902;2022-11-11T09:25:20;1.00;;;1.00;;
14984;SDS011;7588;62.368;25.902;2022-11-11T09:27:54;1.40;;;1.30;;
14984;SDS011;7588;62.368;25.902;2022-11-11T09:30:24;1.30;;;1.10;;
14984;SDS011;7588;62.368;25.902;2022-11-11T09:32:50;1.00;;;0.90;;
14984;SDS011;7588;62.368;25.902;2022-11-11T09:35:17;1.40;;;1.10;;
14984;SDS011;7588;62.368;25.902;2022-11-11T09:37:56;1.00;;;0.80;;
14984;SDS011;7588;62.368;25.902;2022-11-11T09:40:24;1.57;;;0.97;;
14984;SDS011;7588;62.368;25.902;2022-11-11T09:48:40;1.00;;;1.00;;
14984;SDS011;7588;62.368;25.902;2022-11-11T09:51:29;1.13;;;1.03;;
14984;SDS011;7588;62.368;25.902;2022-11-11T09:54:02;2.07;;;1.03;;
14984;SDS011;7588;62.368;25.902;2022-11-11T09:56:32;1.60;;;1.10;;
14984;SDS011;7588;62.368;25.902;2022-11-11T09:59:14;1.30;;;1.20;;
14984;SDS011;7588;62.368;25.902;2022-11-11T10:01:42;1.20;;;1.10;;
14984;SDS011;7588;62.368;25.902;2022-11-11T10:04:29;1.00;;;0.90;;
14984;SDS011;7588;62.368;25.902;2022-11-11T10:06:58;0.73;;;0.60;;
14984;SDS011;7588;62.368;25.902;2022-11-11T10:09:34;0.80;;;0.80;;
14984;SDS011;7588;62.368;25.902;2022-11-11T10:12:09;0.80;;;0.80;;
14984;SDS011;7588;62.368;25.902;2022-11-11T10:14:38;2.27;;;1.13;;
14984;SDS011;7588;62.368;25.902;2022-11-11T10:22:22;0.73;;;0.73;;
14984;SDS011;7588;62.368;25.902;2022-11-11T10:25:37;0.87;;;0.87;;
14984;SDS011;7588;62.368;25.902;2022-11-11T10:27:45;0.70;;;0.70;;
14984;SDS011;7588;62.368;25.902;2022-11-11T10:30:23;0.93;;;0.93;;
14984;SDS011;7588;62.368;25.902;2022-11-11T10:35:33;1.47;;;1.00;;
14984;SDS011;7588;62.368;25.902;2022-11-11T10:43:20;1.00;;;0.57;;
14984;SDS011;7588;62.368;25.902;2022-11-11T10:45:57;3.50;;;0.87;;
14984;SDS011;7588;62.368;25.902;2022-11-11T10:51:25;0.87;;;0.80;;
14984;SDS011;7588;62.368;25.902;2022-11-11T10:56:54;0.70;;;0.70;;
14984;SDS011;7588;62.368;25.902;2022-11-11T10:59:15;0.67;;;0.67;;
14984;SDS011;7588;62.368;25.902;2022-11-11T11:02:08;1.17;;;0.87;;
14984;SDS011;7588;62.368;25.902;2022-11-11T11:07:27;1.50;;;1.40;;
14984;SDS011;7588;62.368;25.902;2022-11-11T11:10:07;1.50;;;1.07;;
14984;SDS011;7588;62.368;25.902;2022-11-11T11:15:17;0.93;;;0.70;;
14984;SDS011;7588;62.368;25.902;2022-11-11T11:18:07;1.43;;;1.20;;
14984;SDS011;7588;62.368;25.902;2022-11-11T11:20:36;0.93;;;0.90;;
14984;SDS011;7588;62.368;25.902;2022-11-11T11:23:02;2.70;;;1.43;;
14984;SDS011;7588;62.368;25.902;2022-11-11T11:25:29;1.30;;;1.20;;
14984;SDS011;7588;62.368;25.902;2022-11-11T11:28:07;1.27;;;1.17;;
14984;SDS011;7588;62.368;25.902;2022-11-11T11:30:35;1.30;;;1.20;;
14984;SDS011;7588;62.368;25.902;2022-11-11T11:33:02;1.90;;;1.10;;
14984;SDS011;7588;62.368;25.902;2022-11-11T11:35:30;1.43;;;1.30;;
14984;SDS011;7588;62.368;25.902;2022-11-11T11:37:59;1.43;;;0.70;;
14984;SDS011;7588;62.368;25.902;2022-11-11T11:40:25;1.10;;;0.83;;
14984;SDS011;7588;62.368;25.902;2022-11-11T11:42:51;1.23;;;0.90;;
14984;SDS011;7588;62.368;25.902;2022-11-11T11:45:26;1.47;;;1.20;;
14984;SDS011;7588;62.368;25.902;2022-11-11T11:55:57;2.03;;;1.00;;
14984;SDS011;7588;62.368;25.902;2022-11-11T12:20:54;4.50;;;2.33;;
14984;SDS011;7588;62.368;25.902;2022-11-11T12:26:18;5.30;;;1.67;;
14984;SDS011;7588;62.368;25.902;2022-11-11T12:28:51;3.10;;;1.67;;
14984;SDS011;7588;62.368;25.902;2022-11-11T12:34:41;4.20;;;1.70;;
14984;SDS011;7588;62.368;25.902;2022-11-11T12:37:30;4.90;;;1.73;;
14984;SDS011;7588;62.368;25.902;2022-11-11T12:51:00;4.33;;;1.70;;
14984;SDS011;7588;62.368;25.902;2022-11-11T13:16:24;6.60;;;2.20;;
14984;SDS011;7588;62.368;25.902;2022-11-11T13:18:59;4.73;;;1.50;;
14984;SDS011;7588;62.368;25.902;2022-11-11T13:21:31;4.10;;;1.90;;
14984;SDS011;7588;62.368;25.902;2022-11-11T13:24:10;4.10;;;1.60;;
14984;SDS011;7588;62.368;25.902;2022-11-11T13:26:48;4.20;;;1.50;;
14984;SDS011;7588;62.368;25.902;2022-11-11T13:32:18;2.97;;;1.63;;
14984;SDS011;7588;62.368;25.902;2022-11-11T13:34:49;3.77;;;1.30;;
14984;SDS011;7588;62.368;25.902;2022-11-11T13:37:21;5.40;;;1.70;;
14984;SDS011;7588;62.368;25.902;2022-11-11T13:42:53;4.63;;;1.23;;
14984;SDS011;7588;62.368;25.902;2022-11-11T13:45:22;5.60;;;2.10;;
14984;SDS011;7588;62.368;25.902;2022-11-11T13:47:49;4.33;;;1.80;;
14984;SDS011;7588;62.368;25.902;2022-11-11T13:50:31;3.33;;;1.40;;
14984;SDS011;7588;62.368;25.902;2022-11-11T13:53:04;4.33;;;1.57;;
14984;SDS011;7588;62.368;25.902;2022-11-11T13:55:37;5.90;;;1.60;;
14984;SDS011;7588;62.368;25.902;2022-11-11T13:58:06;6.13;;;1.83;;
14984;SDS011;7588;62.368;25.902;2022-11-11T14:00:42;4.60;;;1.50;;
14984;SDS011;7588;62.368;25.902;2022-11-11T14:05:42;3.47;;;1.30;;
14984;SDS011;7588;62.368;25.902;2022-11-11T14:08:09;7.80;;;2.10;;
14984;SDS011;7588;62.368;25.902;2022-11-11T14:15:46;3.97;;;1.30;;
14984;SDS011;7588;62.368;25.902;2022-11-11T14:20:42;3.60;;;1.67;;
14984;SDS011;7588;62.368;25.902;2022-11-11T14:25:47;3.67;;;1.40;;
14984;SDS011;7588;62.368;25.902;2022-11-11T14:28:48;4.00;;;1.57;;
14984;SDS011;7588;62.368;25.902;2022-11-11T14:33:54;8.57;;;1.93;;
14984;SDS011;7588;62.368;25.902;2022-11-11T14:44:58;4.50;;;1.50;;
14984;SDS011;7588;62.368;25.902;2022-11-11T14:47:30;4.57;;;1.80;;
14984;SDS011;7588;62.368;25.902;2022-11-11T14:49:58;3.60;;;1.90;;
14984;SDS011;7588;62.368;25.902;2022-11-11T14:52:43;3.60;;;1.37;;
14984;SDS011;7588;62.368;25.902;2022-11-11T14:55:12;4.33;;;1.57;;
14984;SDS011;7588;62.368;25.902;2022-11-11T14:57:46;6.17;;;1.70;;
14984;SDS011;7588;62.368;25.902;2022-11-11T15:00:43;5.17;;;1.50;;
14984;SDS011;7588;62.368;25.902;2022-11-11T15:03:14;4.37;;;1.53;;
14984;SDS011;7588;62.368;25.902;2022-11-11T15:05:49;6.37;;;1.73;;
14984;SDS011;7588;62.368;25.902;2022-11-11T15:19:43;4.10;;;1.43;;
14984;SDS011;7588;62.368;25.902;2022-11-11T15:30:44;4.50;;;1.60;;
14984;SDS011;7588;62.368;25.902;2022-11-11T15:33:16;3.83;;;1.67;;
14984;SDS011;7588;62.368;25.902;2022-11-11T15:38:57;6.33;;;2.37;;
14984;SDS011;7588;62.368;25.902;2022-11-11T15:41:27;6.03;;;1.80;;
14984;SDS011;7588;62.368;25.902;2022-11-11T15:43:58;7.53;;;2.37;;
14984;SDS011;7588;62.368;25.902;2022-11-11T15:46:25;2.77;;;2.27;;
14984;SDS011;7588;62.368;25.902;2022-11-11T15:48:53;4.83;;;2.17;;
14984;SDS011;7588;62.368;25.902;2022-11-11T15:56:39;3.53;;;1.80;;
14984;SDS011;7588;62.368;25.902;2022-11-11T15:59:22;2.97;;;1.60;;
14984;SDS011;7588;62.368;25.902;2022-11-11T16:01:50;4.53;;;1.90;;
14984;SDS011;7588;62.368;25.902;2022-11-11T16:04:17;4.20;;;1.80;;
14984;SDS011;7588;62.368;25.902;2022-11-11T16:06:47;7.83;;;2.30;;
14984;SDS011;7588;62.368;25.902;2022-11-11T16:09:13;4.27;;;1.77;;
14984;SDS011;7588;62.368;25.902;2022-11-11T16:11:48;5.03;;;1.70;;
14984;SDS011;7588;62.368;25.902;2022-11-11T16:14:30;6.67;;;1.90;;
14984;SDS011;7588;62.368;25.902;2022-11-11T16:17:01;4.60;;;2.00;;
14984;SDS011;7588;62.368;25.902;2022-11-11T16:24:34;7.13;;;2.00;;
14984;SDS011;7588;62.368;25.902;2022-11-11T16:27:04;7.57;;;1.90;;
14984;SDS011;7588;62.368;25.902;2022-11-11T16:29:40;7.80;;;1.90;;
14984;SDS011;7588;62.368;25.902;2022-11-11T16:35:01;4.63;;;1.43;;
14984;SDS011;7588;62.368;25.902;2022-11-11T16:37:50;5.57;;;1.90;;
14984;SDS011;7588;62.368;25.902;2022-11-11T16:45:46;3.70;;;1.73;;
14984;SDS011;7588;62.368;25.902;2022-11-11T16:51:04;7.73;;;2.10;;
14984;SDS011;7588;62.368;25.902;2022-11-11T16:53:35;9.03;;;2.20;;
14984;SDS011;7588;62.368;25.902;2022-11-11T16:56:04;9.70;;;2.47;;
14984;SDS011;7588;62.368;25.902;2022-11-11T16:58:38;5.43;;;2.03;;
14984;SDS011;7588;62.368;25.902;2022-11-11T17:01:05;6.77;;;2.17;;
14984;SDS011;7588;62.368;25.902;2022-11-11T17:03:32;4.03;;;2.10;;
14984;SDS011;7588;62.368;25.902;2022-11-11T17:05:59;5.93;;;2.57;;
14984;SDS011;7588;62.368;25.902;2022-11-11T17:11:40;6.70;;;1.80;;
14984;SDS011;7588;62.368;25.902;2022-11-11T17:14:02;9.27;;;2.70;;
14984;SDS011;7588;62.368;25.902;2022-11-11T17:16:28;6.63;;;2.10;;
14984;SDS011;7588;62.368;25.902;2022-11-11T17:18:54;5.33;;;1.70;;
14984;SDS011;7588;62.368;25.902;2022-11-11T17:21:19;7.93;;;2.40;;
14984;SDS011;7588;62.368;25.902;2022-11-11T17:23:45;2.80;;;1.73;;
14984;SDS011;7588;62.368;25.902;2022-11-11T17:26:11;6.60;;;2.30;;
14984;SDS011;7588;62.368;25.902;2022-11-11T17:28:36;6.93;;;2.10;;
14984;SDS011;7588;62.368;25.902;2022-11-11T17:31:06;7.03;;;2.17;;
14984;SDS011;7588;62.368;25.902;2022-11-11T17:33:34;6.10;;;2.43;;
14984;SDS011;7588;62.368;25.902;2022-11-11T17:36:00;9.53;;;2.40;;
14984;SDS011;7588;62.368;25.902;2022-11-11T17:38:26;7.07;;;1.90;;
14984;SDS011;7588;62.368;25.902;2022-11-11T17:40:52;2.07;;;1.80;;
14984;SDS011;7588;62.368;25.902;2022-11-11T17:43:18;7.10;;;2.17;;
14984;SDS011;7588;62.368;25.902;2022-11-11T17:45:44;7.53;;;2.53;;
14984;SDS011;7588;62.368;25.902;2022-11-11T17:48:10;5.30;;;2.10;;
14984;SDS011;7588;62.368;25.902;2022-11-11T17:50:36;5.40;;;2.37;;
14984;SDS011;7588;62.368;25.902;2022-11-11T17:53:04;6.97;;;2.17;;
14984;SDS011;7588;62.368;25.902;2022-11-11T17:55:31;5.67;;;2.13;;
14984;SDS011;7588;62.368;25.902;2022-11-11T17:57:57;5.10;;;2.10;;
14984;SDS011;7588;62.368;25.902;2022-11-11T18:00:24;6.17;;;1.80;;
14984;SDS011;7588;62.368;25.902;2022-11-11T18:02:50;5.53;;;1.70;;
14984;SDS011;7588;62.368;25.902;2022-11-11T18:05:16;5.47;;;2.07;;
14984;SDS011;7588;62.368;25.902;2022-11-11T18:07:42;4.40;;;2.20;;
14984;SDS011;7588;62.368;25.902;2022-11-11T18:10:08;5.27;;;1.70;;
14984;SDS011;7588;62.368;25.902;2022-11-11T18:12:35;4.70;;;1.80;;
14984;SDS011;7588;62.368;25.902;2022-11-11T18:15:02;2.37;;;1.87;;
14984;SDS011;7588;62.368;25.902;2022-11-11T18:17:28;6.70;;;1.90;;